createdAt,value
2023-03-11T00:00:47.640Z,5.40
2023-03-11T00:03:18.074Z,5.20
2023-03-11T00:05:46.985Z,5.11
2023-03-11T00:08:23.063Z,5.19
2023-03-11T00:11:00.353Z,5.02
2023-03-11T00:13:30.051Z,5.08
2023-03-11T00:15:58.046Z,5.14
2023-03-11T00:18:30.215Z,5.14
2023-03-11T00:20:59.134Z,5.06
2023-03-11T00:23:28.044Z,5.10
2023-03-11T00:26:00.001Z,5.24
2023-03-11T00:28:28.053Z,5.26
2023-03-11T00:30:56.601Z,5.20
2023-03-11T00:33:24.526Z,5.15
2023-03-11T00:35:51.951Z,5.18
2023-03-11T00:38:19.683Z,5.11
2023-03-11T00:40:48.620Z,5.12
2023-03-11T00:43:17.133Z,4.99
2023-03-11T00:45:44.929Z,4.91
2023-03-11T00:48:15.480Z,4.80
2023-03-11T00:50:43.668Z,4.90
2023-03-11T00:53:13.485Z,5.05
2023-03-11T00:55:41.111Z,4.92
2023-03-11T00:58:09.088Z,5.14
2023-03-11T01:00:37.825Z,5.07
2023-03-11T01:03:05.477Z,5.03
2023-03-11T01:05:35.127Z,5.10
2023-03-11T01:08:04.111Z,5.05
2023-03-11T01:10:33.676Z,5.07
2023-03-11T01:13:01.526Z,5.15
2023-03-11T01:15:34.091Z,5.17
2023-03-11T01:18:02.579Z,5.34
2023-03-11T01:20:30.174Z,5.22
2023-03-11T01:22:59.174Z,5.30
2023-03-11T01:25:26.896Z,5.19
2023-03-11T01:27:54.316Z,5.40
2023-03-11T01:30:24.002Z,5.44
2023-03-11T01:32:53.933Z,5.35
2023-03-11T01:35:23.830Z,5.27
2023-03-11T01:37:53.668Z,5.36
2023-03-11T01:40:40.956Z,5.57
2023-03-11T01:43:40.986Z,5.62
2023-03-11T01:46:37.847Z,5.71
2023-03-11T01:49:12.609Z,5.70
2023-03-11T01:51:42.975Z,5.80
2023-03-11T01:54:14.788Z,5.85
2023-03-11T01:56:45.638Z,5.91
2023-03-11T01:59:16.271Z,5.88
2023-03-11T02:01:52.791Z,5.96
2023-03-11T02:04:21.547Z,5.95
2023-03-11T02:06:51.406Z,6.09
2023-03-11T02:09:20.351Z,6.01
2023-03-11T02:11:50.019Z,6.00
2023-03-11T02:14:17.751Z,5.85
2023-03-11T02:16:50.531Z,5.77
2023-03-11T02:19:34.749Z,5.91
2023-03-11T02:22:03.164Z,5.85
2023-03-11T02:24:46.908Z,5.89
2023-03-11T02:27:19.517Z,5.84
2023-03-11T02:29:50.145Z,5.82
2023-03-11T02:32:19.013Z,5.78
2023-03-11T02:34:46.525Z,5.83
2023-03-11T02:37:17.606Z,5.98
2023-03-11T02:39:47.864Z,5.92
2023-03-11T02:42:28.303Z,5.87
2023-03-11T02:45:03.298Z,5.84
2023-03-11T02:47:31.241Z,5.86
2023-03-11T02:49:59.662Z,5.95
2023-03-11T02:52:28.933Z,5.84
2023-03-11T02:54:56.519Z,5.89
2023-03-11T02:57:24.125Z,5.93
2023-03-11T02:59:51.916Z,5.99
2023-03-11T03:02:20.165Z,6.02
2023-03-11T03:04:47.540Z,6.04
2023-03-11T03:07:14.901Z,6.06
2023-03-11T03:09:42.471Z,5.95
2023-03-11T03:12:11.002Z,5.96
2023-03-11T03:14:39.849Z,6.10
2023-03-11T03:17:07.419Z,6.05
2023-03-11T03:19:35.101Z,6.03
2023-03-11T03:22:04.014Z,6.17
2023-03-11T03:24:31.657Z,6.22
2023-03-11T03:26:59.038Z,6.19
2023-03-11T03:29:26.786Z,6.05
2023-03-11T03:31:54.999Z,5.81
2023-03-11T03:34:22.664Z,5.78
2023-03-11T03:36:50.079Z,5.89
2023-03-11T03:39:19.817Z,5.87
2023-03-11T03:41:47.470Z,5.95
2023-03-11T03:44:17.122Z,5.87
2023-03-11T03:46:44.823Z,5.79
2023-03-11T03:49:12.168Z,5.89
2023-03-11T03:51:39.820Z,5.78
2023-03-11T03:54:07.240Z,5.79
2023-03-11T03:56:39.230Z,5.89
2023-03-11T03:59:07.172Z,5.91
2023-03-11T04:01:34.524Z,5.84
2023-03-11T04:04:02.003Z,6.07
2023-03-11T04:06:30.000Z,5.90
2023-03-11T04:09:01.070Z,5.91
2023-03-11T04:11:29.121Z,5.94
2023-03-11T04:13:57.599Z,5.80
2023-03-11T04:16:26.664Z,5.94
2023-03-11T04:18:54.161Z,6.10
2023-03-11T04:21:21.573Z,6.13
2023-03-11T04:23:53.342Z,6.20
2023-03-11T04:26:20.759Z,6.14
2023-03-11T04:28:48.168Z,6.25
2023-03-11T04:31:15.706Z,6.39
2023-03-11T04:33:44.120Z,6.08
2023-03-11T04:36:12.889Z,6.19
2023-03-11T04:38:41.467Z,6.17
2023-03-11T04:41:09.037Z,6.34
2023-03-11T04:43:37.261Z,6.46
2023-03-11T04:46:04.998Z,6.16
2023-03-11T04:48:32.647Z,6.23
2023-03-11T04:51:00.154Z,6.29
2023-03-11T04:53:27.620Z,6.42
2023-03-11T04:55:55.440Z,6.15
2023-03-11T04:58:23.005Z,6.26
2023-03-11T05:00:50.640Z,6.51
2023-03-11T05:03:19.207Z,6.42
2023-03-11T05:05:49.213Z,6.46
2023-03-11T05:08:17.048Z,6.59
2023-03-11T05:10:45.006Z,6.74
2023-03-11T05:13:14.573Z,6.69
2023-03-11T05:15:42.712Z,6.86
2023-03-11T05:18:10.703Z,6.93
2023-03-11T05:20:39.229Z,6.95
2023-03-11T05:23:06.924Z,6.99
2023-03-11T05:25:35.543Z,6.92
2023-03-11T05:28:03.572Z,6.78
2023-03-11T05:30:31.406Z,6.93
2023-03-11T05:32:58.808Z,6.88
2023-03-11T05:35:26.337Z,6.98
2023-03-11T05:37:54.946Z,6.98
2023-03-11T05:40:25.333Z,6.86
2023-03-11T05:42:53.255Z,7.00
2023-03-11T05:45:21.203Z,7.02
2023-03-11T05:47:49.677Z,7.05
2023-03-11T05:50:17.264Z,7.07
2023-03-11T05:52:45.648Z,7.09
2023-03-11T05:55:13.307Z,7.06
2023-03-11T05:57:46.875Z,7.19
2023-03-11T06:00:14.868Z,7.13
2023-03-11T06:03:02.155Z,7.15
2023-03-11T06:05:29.802Z,7.28
2023-03-11T06:07:59.250Z,7.24
2023-03-11T06:10:27.200Z,7.42
2023-03-11T06:12:56.007Z,7.27
2023-03-11T06:15:29.984Z,7.38
2023-03-11T06:17:57.436Z,7.38
2023-03-11T06:20:29.378Z,7.19
2023-03-11T06:22:57.026Z,7.41
2023-03-11T06:25:24.430Z,7.34
2023-03-11T06:27:53.516Z,7.46
2023-03-11T06:30:21.276Z,7.47
2023-03-11T06:32:51.020Z,7.47
2023-03-11T06:35:18.723Z,7.41
2023-03-11T06:37:46.398Z,7.39
2023-03-11T06:40:14.156Z,7.78
2023-03-11T06:42:41.910Z,7.53
2023-03-11T06:45:09.644Z,7.64
2023-03-11T06:47:37.766Z,7.79
2023-03-11T06:50:07.550Z,7.71
2023-03-11T06:52:36.029Z,7.68
2023-03-11T06:55:04.166Z,7.84
2023-03-11T06:57:32.781Z,7.84
2023-03-11T07:00:00.253Z,8.02
2023-03-11T07:02:27.630Z,7.88
2023-03-11T07:04:55.105Z,8.02
2023-03-11T07:07:22.537Z,8.03
2023-03-11T07:09:50.395Z,7.94
2023-03-11T07:12:17.900Z,8.04
2023-03-11T07:14:45.270Z,8.03
2023-03-11T07:17:14.570Z,8.11
2023-03-11T07:19:41.944Z,8.06
2023-03-11T07:22:09.499Z,8.30
2023-03-11T07:24:38.554Z,8.17
2023-03-11T07:27:06.338Z,8.20
2023-03-11T07:29:33.767Z,8.48
2023-03-11T07:32:01.696Z,8.50
2023-03-11T07:34:31.142Z,8.48
2023-03-11T07:37:02.099Z,8.47
2023-03-11T07:39:29.763Z,8.33
2023-03-11T07:41:57.395Z,8.46
2023-03-11T07:44:24.715Z,8.53
2023-03-11T07:46:52.068Z,8.56
2023-03-11T07:49:20.825Z,8.63
2023-03-11T07:51:48.333Z,8.56
2023-03-11T07:54:15.706Z,8.84
2023-03-11T07:56:44.597Z,8.87
2023-03-11T07:59:12.352Z,8.86
2023-03-11T08:01:41.468Z,8.61
2023-03-11T08:04:14.365Z,8.87
2023-03-11T08:06:43.853Z,9.01
2023-03-11T08:09:12.283Z,8.97
2023-03-11T08:11:41.517Z,9.10
2023-03-11T08:14:09.353Z,9.14
2023-03-11T08:16:41.765Z,9.04
2023-03-11T08:19:12.877Z,9.27
2023-03-11T08:21:40.867Z,9.39
2023-03-11T08:24:13.661Z,9.41
2023-03-11T08:26:41.749Z,9.44
2023-03-11T08:29:11.343Z,9.43
2023-03-11T08:31:39.001Z,9.32
2023-03-11T08:34:10.992Z,9.31
2023-03-11T08:36:38.705Z,9.25
2023-03-11T08:39:06.454Z,9.22
2023-03-11T08:41:34.148Z,9.31
2023-03-11T08:44:01.990Z,9.10
2023-03-11T08:46:29.868Z,9.31
2023-03-11T08:49:00.924Z,9.25
2023-03-11T08:51:31.425Z,9.14
2023-03-11T08:54:03.143Z,9.24
2023-03-11T08:56:31.491Z,9.32
2023-03-11T08:58:59.547Z,9.33
2023-03-11T09:01:26.932Z,9.38
2023-03-11T09:03:54.345Z,9.41
2023-03-11T09:06:24.615Z,9.44
2023-03-11T09:08:52.221Z,9.60
2023-03-11T09:11:22.118Z,9.70
2023-03-11T09:13:53.914Z,9.74
2023-03-11T09:16:23.351Z,9.73
2023-03-11T09:18:50.973Z,9.77
2023-03-11T09:21:23.010Z,9.87
2023-03-11T09:23:50.783Z,9.87
2023-03-11T09:26:18.405Z,9.96
2023-03-11T09:28:49.228Z,10.07
2023-03-11T09:31:18.215Z,10.10
2023-03-11T09:33:47.309Z,10.12
2023-03-11T09:36:19.927Z,10.27
2023-03-11T09:38:47.927Z,10.20
2023-03-11T09:41:18.027Z,10.32
2023-03-11T09:44:03.373Z,10.31
2023-03-11T09:46:45.884Z,10.24
2023-03-11T09:49:41.963Z,10.13
2023-03-11T09:52:10.759Z,10.20
2023-03-11T09:54:43.529Z,10.28
2023-03-11T09:57:19.552Z,10.36
2023-03-11T09:59:47.840Z,10.27
2023-03-11T10:02:21.751Z,10.46
2023-03-11T10:04:52.264Z,10.41
2023-03-11T10:07:40.511Z,10.41
2023-03-11T10:10:13.846Z,10.36
2023-03-11T10:13:01.285Z,10.46
2023-03-11T10:15:49.787Z,10.37
2023-03-11T10:18:25.580Z,10.35
2023-03-11T10:21:31.278Z,10.39
2023-03-11T10:24:31.056Z,10.50
2023-03-11T10:27:03.895Z,10.43
2023-03-11T10:29:53.247Z,10.41
2023-03-11T10:32:45.915Z,10.28
2023-03-11T10:35:24.143Z,10.44
2023-03-11T10:37:57.095Z,10.28
2023-03-11T10:40:37.637Z,10.25
2023-03-11T10:43:40.361Z,10.18
2023-03-11T10:46:25.340Z,10.25
2023-03-11T10:48:52.710Z,10.28
2023-03-11T10:51:34.378Z,10.45
2023-03-11T10:54:03.744Z,10.46
2023-03-11T10:56:39.057Z,10.41
2023-03-11T10:59:32.972Z,10.50
2023-03-11T11:02:02.675Z,10.78
2023-03-11T11:04:34.816Z,10.64
2023-03-11T11:07:25.459Z,10.66
2023-03-11T11:10:19.757Z,10.86
2023-03-11T11:13:14.060Z,10.80
2023-03-11T11:15:50.858Z,10.92
2023-03-11T11:18:23.439Z,10.89
2023-03-11T11:20:55.982Z,10.88
2023-03-11T11:23:40.893Z,10.88
2023-03-11T11:26:19.554Z,10.89
2023-03-11T11:28:46.943Z,10.98
2023-03-11T11:31:25.034Z,11.02
2023-03-11T11:33:55.988Z,11.05
2023-03-11T11:36:29.699Z,11.09
2023-03-11T11:38:59.907Z,11.01
2023-03-11T11:41:29.591Z,11.05
2023-03-11T11:44:04.319Z,10.94
2023-03-11T11:46:49.367Z,10.98
2023-03-11T11:49:25.999Z,10.93
2023-03-11T11:52:14.344Z,10.97
2023-03-11T11:55:00.222Z,10.79
2023-03-11T11:57:28.777Z,10.82
2023-03-11T11:59:57.534Z,10.76
2023-03-11T12:03:03.875Z,10.92
2023-03-11T12:05:35.967Z,10.82
2023-03-11T12:08:15.328Z,10.89
2023-03-11T12:10:53.847Z,10.85
2023-03-11T12:13:36.309Z,10.93
2023-03-11T12:16:22.596Z,10.86
2023-03-11T12:19:10.867Z,10.83
2023-03-11T12:21:57.404Z,10.88
2023-03-11T12:24:34.420Z,10.97
2023-03-11T12:27:27.670Z,10.94
2023-03-11T12:30:15.397Z,10.95
2023-03-11T12:32:57.597Z,11.00
2023-03-11T12:35:28.527Z,10.99
2023-03-11T12:38:23.295Z,11.02
2023-03-11T12:40:59.433Z,11.03
2023-03-11T12:43:35.965Z,11.08
2023-03-11T12:46:05.503Z,11.12
2023-03-11T12:48:32.813Z,11.09
2023-03-11T12:51:00.945Z,11.12
2023-03-11T12:53:47.472Z,11.11
2023-03-11T12:56:44.305Z,11.11
2023-03-11T12:59:36.627Z,11.12
2023-03-11T13:02:10.319Z,11.21
2023-03-11T13:05:07.711Z,11.08
2023-03-11T13:07:51.449Z,11.19
2023-03-11T13:10:42.156Z,11.28
2023-03-11T13:13:24.852Z,11.15
2023-03-11T13:15:53.574Z,11.17
2023-03-11T13:18:33.327Z,11.26
2023-03-11T13:21:04.313Z,11.11
2023-03-11T13:23:38.149Z,11.12
2023-03-11T13:26:37.691Z,11.11
2023-03-11T13:29:11.178Z,11.16
2023-03-11T13:31:59.619Z,11.17
2023-03-11T13:34:35.980Z,11.14
2023-03-11T13:37:37.149Z,11.24
2023-03-11T13:40:16.621Z,11.16
2023-03-11T13:42:50.922Z,11.27
2023-03-11T13:45:30.793Z,11.41
2023-03-11T13:48:18.740Z,11.30
2023-03-11T13:50:52.142Z,11.44
2023-03-11T13:53:47.126Z,11.44
2023-03-11T13:56:39.310Z,11.44
2023-03-11T13:59:27.176Z,11.54
2023-03-11T14:02:00.136Z,11.61
2023-03-11T14:04:33.839Z,11.61
2023-03-11T14:07:15.083Z,11.42
2023-03-11T14:09:42.717Z,11.52
2023-03-11T14:12:12.220Z,11.63
2023-03-11T14:14:39.647Z,11.53
2023-03-11T14:17:16.362Z,11.52
2023-03-11T14:19:44.272Z,11.62
2023-03-11T14:22:15.173Z,11.34
2023-03-11T14:24:48.231Z,11.51
2023-03-11T14:27:17.132Z,11.48
2023-03-11T14:29:46.382Z,11.46
2023-03-11T14:32:30.229Z,11.38
2023-03-11T14:34:58.776Z,11.42
2023-03-11T14:37:34.877Z,11.20
2023-03-11T14:40:04.207Z,11.35
2023-03-11T14:42:38.936Z,11.28
2023-03-11T14:45:15.608Z,11.33
2023-03-11T14:48:05.989Z,11.24
2023-03-11T14:50:35.333Z,11.09
2023-03-11T14:53:12.261Z,11.11
2023-03-11T14:55:58.609Z,11.13
2023-03-11T14:58:29.430Z,11.04
2023-03-11T15:01:14.417Z,11.04
2023-03-11T15:03:48.878Z,10.97
2023-03-11T15:06:18.449Z,11.03
2023-03-11T15:09:07.444Z,11.05
2023-03-11T15:11:53.021Z,11.03
2023-03-11T15:14:26.113Z,10.70
2023-03-11T15:17:17.526Z,10.86
2023-03-11T15:19:56.120Z,10.96
2023-03-11T15:22:35.854Z,10.92
2023-03-11T15:25:14.612Z,11.02
2023-03-11T15:27:42.268Z,11.02
2023-03-11T15:30:20.963Z,11.01
2023-03-11T15:32:49.091Z,11.12
2023-03-11T15:35:19.092Z,10.97
2023-03-11T15:37:48.979Z,11.05
2023-03-11T15:40:35.355Z,11.00
2023-03-11T15:43:15.730Z,11.01
2023-03-11T15:45:44.196Z,11.01
2023-03-11T15:48:13.475Z,10.99
2023-03-11T15:50:54.443Z,10.98
2023-03-11T15:53:26.187Z,10.79
2023-03-11T15:56:03.859Z,10.93
2023-03-11T15:58:39.584Z,10.96
2023-03-11T16:01:07.769Z,10.86
2023-03-11T16:03:35.412Z,10.92
2023-03-11T16:06:02.936Z,10.89
2023-03-11T16:08:32.956Z,10.80
2023-03-11T16:11:00.334Z,10.80
2023-03-11T16:13:36.647Z,10.70
2023-03-11T16:16:05.388Z,10.55
2023-03-11T16:18:33.957Z,10.75
2023-03-11T16:21:08.685Z,10.65
2023-03-11T16:23:50.717Z,10.64
2023-03-11T16:26:20.834Z,10.44
2023-03-11T16:28:49.171Z,10.38
2023-03-11T16:31:16.739Z,10.20
2023-03-11T16:33:44.988Z,10.36
2023-03-11T16:36:12.465Z,10.34
2023-03-11T16:38:48.851Z,10.14
2023-03-11T16:41:17.520Z,10.18
2023-03-11T16:43:45.668Z,9.98
2023-03-11T16:46:13.547Z,9.99
2023-03-11T16:48:41.043Z,10.03
2023-03-11T16:51:10.397Z,9.96
2023-03-11T16:53:37.812Z,9.94
2023-03-11T16:56:07.808Z,10.09
2023-03-11T16:58:36.204Z,9.93
2023-03-11T17:01:03.763Z,10.07
2023-03-11T17:03:41.962Z,10.17
2023-03-11T17:06:10.401Z,10.02
2023-03-11T17:08:39.632Z,10.11
2023-03-11T17:11:14.975Z,9.99
2023-03-11T17:13:42.771Z,10.03
2023-03-11T17:16:10.245Z,10.03
2023-03-11T17:18:42.032Z,9.99
2023-03-11T17:21:12.752Z,10.10
2023-03-11T17:23:40.370Z,10.13
2023-03-11T17:26:15.155Z,10.14
2023-03-11T17:28:43.433Z,10.18
2023-03-11T17:31:12.740Z,10.22
2023-03-11T17:33:42.956Z,10.10
2023-03-11T17:36:14.628Z,10.21
2023-03-11T17:38:47.276Z,10.16
2023-03-11T17:41:17.100Z,10.35
2023-03-11T17:43:45.417Z,10.28
2023-03-11T17:46:15.843Z,10.26
2023-03-11T17:48:46.032Z,10.33
2023-03-11T17:51:17.425Z,10.37
2023-03-11T17:53:46.473Z,10.42
2023-03-11T17:56:16.197Z,10.43
2023-03-11T17:58:44.555Z,10.43
2023-03-11T18:01:22.203Z,10.36
2023-03-11T18:03:50.387Z,10.43
2023-03-11T18:06:19.817Z,10.35
2023-03-11T18:08:47.321Z,10.38
2023-03-11T18:11:21.165Z,10.31
2023-03-11T18:13:50.458Z,10.46
2023-03-11T18:16:20.940Z,10.44
2023-03-11T18:18:52.622Z,10.47
2023-03-11T18:21:23.176Z,10.48
2023-03-11T18:24:00.536Z,10.31
2023-03-11T18:26:29.403Z,10.44
2023-03-11T18:28:58.456Z,10.29
2023-03-11T18:31:28.031Z,10.37
2023-03-11T18:34:02.702Z,10.35
2023-03-11T18:36:32.739Z,10.35
2023-03-11T18:39:04.937Z,10.41
2023-03-11T18:41:35.252Z,10.45
2023-03-11T18:44:09.806Z,10.55
2023-03-11T18:46:38.363Z,10.51
2023-03-11T18:49:06.050Z,10.50
2023-03-11T18:51:35.666Z,10.46
2023-03-11T18:54:03.850Z,10.37
2023-03-11T18:56:31.893Z,10.54
2023-03-11T18:59:00.267Z,10.53
2023-03-11T19:01:28.181Z,10.58
2023-03-11T19:03:58.265Z,10.70
2023-03-11T19:06:27.841Z,10.57
2023-03-11T19:08:55.708Z,10.56
2023-03-11T19:11:25.144Z,10.81
2023-03-11T19:13:53.205Z,11.07
2023-03-11T19:16:23.847Z,10.98
2023-03-11T19:18:53.968Z,10.94
2023-03-11T19:21:22.548Z,10.88
2023-03-11T19:23:52.896Z,10.94
2023-03-11T19:26:23.871Z,10.90
2023-03-11T19:28:55.452Z,10.99
2023-03-11T19:31:28.063Z,10.97
2023-03-11T19:33:56.145Z,11.02
2023-03-11T19:36:23.867Z,10.96
2023-03-11T19:38:51.950Z,10.77
2023-03-11T19:41:20.122Z,10.72
2023-03-11T19:43:48.328Z,10.76
2023-03-11T19:46:18.789Z,10.81
2023-03-11T19:48:47.027Z,10.73
2023-03-11T19:51:17.282Z,10.81
2023-03-11T19:53:46.069Z,10.74
2023-03-11T19:56:17.448Z,10.61
2023-03-11T19:58:44.884Z,10.46
2023-03-11T20:01:18.085Z,10.49
2023-03-11T20:03:46.675Z,10.41
2023-03-11T20:06:16.710Z,10.54
2023-03-11T20:08:44.316Z,10.42
2023-03-11T20:11:13.721Z,10.30
2023-03-11T20:13:44.159Z,10.25
2023-03-11T20:16:17.273Z,10.24
2023-03-11T20:18:51.604Z,10.24
2023-03-11T20:21:19.407Z,10.33
2023-03-11T20:23:49.112Z,10.19
2023-03-11T20:26:18.977Z,10.23
2023-03-11T20:28:47.533Z,10.30
2023-03-11T20:31:18.407Z,10.18
2023-03-11T20:33:47.010Z,10.31
2023-03-11T20:36:17.682Z,10.33
2023-03-11T20:38:46.764Z,10.25
2023-03-11T20:41:14.784Z,10.23
2023-03-11T20:43:42.668Z,10.39
2023-03-11T20:46:11.948Z,10.38
2023-03-11T20:48:39.790Z,10.42
2023-03-11T20:51:11.752Z,10.31
2023-03-11T20:53:39.539Z,10.25
2023-03-11T20:56:10.605Z,10.30
2023-03-11T20:58:38.804Z,10.40
2023-03-11T21:01:15.999Z,10.37
2023-03-11T21:03:44.355Z,10.43
2023-03-11T21:06:19.747Z,10.28
2023-03-11T21:08:47.955Z,10.30
2023-03-11T21:11:17.257Z,10.25
2023-03-11T21:13:44.931Z,10.19
2023-03-11T21:16:13.263Z,10.26
2023-03-11T21:18:43.741Z,10.19
2023-03-11T21:21:14.327Z,10.10
2023-03-11T21:23:44.331Z,10.25
2023-03-11T21:26:14.660Z,10.45
2023-03-11T21:28:46.662Z,10.39
2023-03-11T21:31:19.983Z,10.26
2023-03-11T21:33:48.809Z,10.23
2023-03-11T21:36:17.124Z,10.20
2023-03-11T21:38:46.543Z,10.14
2023-03-11T21:41:21.047Z,10.29
2023-03-11T21:43:49.149Z,10.23
2023-03-11T21:46:19.313Z,10.32
2023-03-11T21:48:47.767Z,10.01
2023-03-11T21:51:17.400Z,9.90
2023-03-11T21:53:45.454Z,9.88
2023-03-11T21:56:13.754Z,9.88
2023-03-11T21:58:42.570Z,9.81
2023-03-11T22:01:11.172Z,9.85
2023-03-11T22:03:39.179Z,9.90
2023-03-11T22:06:09.668Z,9.81
2023-03-11T22:08:37.841Z,9.79
2023-03-11T22:11:14.015Z,9.90
2023-03-11T22:13:41.974Z,9.99
2023-03-11T22:16:09.771Z,9.83
2023-03-11T22:18:37.469Z,9.95
2023-03-11T22:21:05.795Z,9.75
2023-03-11T22:23:34.392Z,9.93
2023-03-11T22:26:04.815Z,9.93
2023-03-11T22:28:35.542Z,9.93
2023-03-11T22:31:11.401Z,9.94
2023-03-11T22:33:39.997Z,9.74
2023-03-11T22:36:09.441Z,9.87
2023-03-11T22:38:44.307Z,9.81
2023-03-11T22:41:13.935Z,9.90
2023-03-11T22:43:41.372Z,10.08
2023-03-11T22:46:08.843Z,9.99
2023-03-11T22:48:37.045Z,10.08
2023-03-11T22:51:06.856Z,10.23
2023-03-11T22:53:36.141Z,10.29
2023-03-11T22:56:12.839Z,10.20
2023-03-11T22:58:41.974Z,10.21
2023-03-11T23:01:10.029Z,10.19
2023-03-11T23:03:38.517Z,10.17
2023-03-11T23:06:08.236Z,10.18
2023-03-11T23:08:36.377Z,10.24
2023-03-11T23:11:06.850Z,10.25
2023-03-11T23:13:36.064Z,10.23
2023-03-11T23:16:07.482Z,10.16
2023-03-11T23:18:38.927Z,10.12
2023-03-11T23:21:20.240Z,10.16
2023-03-11T23:23:47.762Z,10.25
2023-03-11T23:26:16.692Z,10.33
2023-03-11T23:28:44.818Z,10.23
2023-03-11T23:31:14.661Z,10.37
2023-03-11T23:33:43.646Z,10.40
2023-03-11T23:36:13.940Z,10.49
2023-03-11T23:38:47.956Z,10.41
2023-03-11T23:41:18.534Z,10.34
2023-03-11T23:43:46.276Z,10.33
2023-03-11T23:46:15.791Z,10.41
2023-03-11T23:48:43.260Z,10.34
2023-03-11T23:51:11.782Z,10.27
2023-03-11T23:53:40.832Z,10.22
2023-03-11T23:56:16.949Z,10.30
2023-03-11T23:58:46.941Z,10.18
